Time;durP1;ratioP1;P1;durP2;ratioP2;P2;SDS_P1;SDS_P2;PMS_P1;PMS_P2;Temp;Humidity;BMP_temperature;BMP_pressure;BME280_temperature;BME280_humidity;BME280_pressure;Samples;Min_cycle;Max_cycle;Signal;HPM_P1;HPM_P2
2022/01/04 00:00:03;;;;;;;26.42;12.00;;;;;;;;;;5093718;28;20036;-82
2022/01/04 00:02:29;;;;;;;33.47;12.00;;;;;;;;;;5099596;28;20051;-81
2022/01/04 00:04:55;;;;;;;35.08;12.70;;;;;;;;;;5097067;28;20127;-82
2022/01/04 00:07:22;;;;;;;36.95;12.23;;;;;;;;;;5080310;28;20134;-83
2022/01/04 00:09:51;;;;;;;26.35;11.30;;;;;;;;;;5079866;28;20096;-82
2022/01/04 00:15:01;;;;;;;31.73;11.15;;;;;;;;;;5096585;28;20051;-82
2022/01/04 00:17:28;;;;;;;29.52;11.38;;;;;;;;;;5096901;28;20167;-81
2022/01/04 00:19:55;;;;;;;34.00;11.35;;;;;;;;;;5097048;28;20402;-82
2022/01/04 00:22:21;;;;;;;36.67;11.50;;;;;;;;;;5080008;28;20135;-81
2022/01/04 00:24:47;;;;;;;29.42;11.10;;;;;;;;;;5096742;28;20051;-83
2022/01/04 00:27:13;;;;;;;35.33;11.77;;;;;;;;;;5080080;28;20405;-81
2022/01/04 00:29:39;;;;;;;31.25;13.10;;;;;;;;;;5114570;28;20116;-82
2022/01/04 00:32:05;;;;;;;27.15;13.02;;;;;;;;;;5114898;28;20500;-83
2022/01/04 00:34:31;;;;;;;37.13;12.95;;;;;;;;;;5114699;28;20058;-81
2022/01/04 00:36:57;;;;;;;28.13;13.32;;;;;;;;;;5080302;28;20048;-82
2022/01/04 00:39:23;;;;;;;32.05;13.48;;;;;;;;;;5079025;28;20561;-82
2022/01/04 00:41:49;;;;;;;31.00;13.85;;;;;;;;;;5114502;28;20051;-82
2022/01/04 00:44:15;;;;;;;31.13;13.80;;;;;;;;;;5079446;28;20054;-82
2022/01/04 00:46:41;;;;;;;41.03;14.55;;;;;;;;;;5096557;28;20051;-81
2022/01/04 00:49:10;;;;;;;34.45;14.27;;;;;;;;;;5079096;28;20082;-82
2022/01/04 00:51:40;;;;;;;35.20;14.27;;;;;;;;;;5096117;28;20040;-81
2022/01/04 00:54:07;;;;;;;28.73;14.18;;;8.40;99.90;;;;;;5079123;28;20039;-83
2022/01/04 00:56:33;;;;;;;30.15;14.23;;;;;;;;;;5096276;28;20048;-82
2022/01/04 00:59:03;;;;;;;32.72;14.95;;;8.40;99.90;;;;;;5114659;28;20036;-82
2022/01/04 01:01:29;;;;;;;33.30;13.95;;;;;;;;;;5095922;28;20043;-81
2022/01/04 01:03:55;;;;;;;38.08;15.07;;;;;;;;;;5092568;28;20064;-82
2022/01/04 01:06:21;;;;;;;32.28;15.00;;;;;;;;;;5092653;28;20087;-82
2022/01/04 01:08:47;;;;;;;33.85;15.30;;;;;;;;;;5075983;28;20047;-82
2022/01/04 01:11:14;;;;;;;27.25;13.75;;;8.40;99.90;;;;;;5092969;28;20120;-81
2022/01/04 01:13:40;;;;;;;35.72;15.00;;;;;;;;;;5076456;28;20047;-81
2022/01/04 01:16:07;;;;;;;31.52;14.73;;;;;;;;;;5076331;28;20393;-82
2022/01/04 01:18:33;;;;;;;32.95;14.32;;;;;;;;;;5093836;28;20060;-81
2022/01/04 01:20:59;;;;;;;38.25;15.90;;;;;;;;;;5097249;28;20051;-81
2022/01/04 01:23:26;;;;;;;35.15;15.25;;;8.30;99.90;;;;;;5077878;28;20048;-82
2022/01/04 01:25:52;;;;;;;31.05;14.77;;;;;;;;;;5095089;28;20146;-82
2022/01/04 01:28:18;;;;;;;31.58;15.23;;;;;;;;;;5080160;28;20482;-82
2022/01/04 01:30:45;;;;;;;30.33;15.35;;;;;;;;;;5098749;28;20044;-82
2022/01/04 01:33:11;;;;;;;39.60;16.20;;;;;;;;;;5097563;28;20478;-82
2022/01/04 01:35:39;;;;;;;37.70;16.30;;;;;;;;;;5097579;28;20058;-81
2022/01/04 01:38:05;;;;;;;35.95;15.90;;;;;;;;;;5099313;28;20124;-82
2022/01/04 01:40:32;;;;;;;34.97;17.00;;;;;;;;;;5083933;28;20047;-81
2022/01/04 01:42:58;;;;;;;32.80;16.17;;;;;;;;;;5084228;28;20051;-82
2022/01/04 01:45:25;;;;;;;32.42;16.08;;;;;;;;;;5083540;28;20151;-82
2022/01/04 01:47:51;;;;;;;35.42;16.33;;;;;;;;;;5097111;28;20379;-81
2022/01/04 01:50:19;;;;;;;32.72;16.38;;;8.30;99.90;;;;;;5078455;28;20044;-81
2022/01/04 01:52:46;;;;;;;42.78;16.83;;;;;;;;;;5078759;28;20048;-82
2022/01/04 01:55:13;;;;;;;37.45;17.75;;;;;;;;;;5096584;28;20048;-83
2022/01/04 01:57:39;;;;;;;39.50;17.48;;;;;;;;;;5080303;28;20086;-81
2022/01/04 02:00:07;;;;;;;39.80;18.25;;;;;;;;;;5079640;28;20066;-82
2022/01/04 02:02:36;;;;;;;36.30;18.10;;;;;;;;;;5095847;28;20052;-82
2022/01/04 02:05:02;;;;;;;38.10;18.27;;;;;;;;;;5095657;28;20395;-82
2022/01/04 02:07:29;;;;;;;36.55;18.38;;;;;;;;;;5096709;28;20068;-83
2022/01/04 02:10:03;;;;;;;42.08;19.98;;;;;;;;;;5078497;28;20051;-82
2022/01/04 02:12:31;;;;;;;43.35;18.90;;;8.10;99.90;;;;;;5079685;28;20048;-82
2022/01/04 02:14:57;;;;;;;37.30;19.55;;;;;;;;;;5095774;28;20044;-82
2022/01/04 02:17:24;;;;;;;42.15;19.00;;;;;;;;;;5078586;28;20064;-82
2022/01/04 02:19:50;;;;;;;44.65;19.95;;;;;;;;;;5095437;28;20089;-82
2022/01/04 02:22:16;;;;;;;37.55;19.77;;;;;;;;;;5078275;28;20055;-82
2022/01/04 02:24:42;;;;;;;38.88;19.98;;;;;;;;;;5078429;28;20044;-82
2022/01/04 02:27:08;;;;;;;44.65;21.50;;;;;;;;;;5078311;28;20098;-82
2022/01/04 02:29:34;;;;;;;41.00;21.83;;;;;;;;;;5096622;28;20074;-82
2022/01/04 02:32:00;;;;;;;45.05;22.52;;;;;;;;;;5078441;28;20084;-82
2022/01/04 02:34:26;;;;;;;42.10;22.40;;;;;;;;;;5078431;28;20052;-82
2022/01/04 02:36:53;;;;;;;51.90;24.45;;;;;;;;;;5078132;28;20478;-82
2022/01/04 02:39:19;;;;;;;53.42;24.42;;;;;;;;;;5095712;28;20461;-82
2022/01/04 02:41:45;;;;;;;46.00;24.38;;;;;;;;;;5095131;28;20079;-83
2022/01/04 02:44:11;;;;;;;48.00;25.33;;;;;;;;;;5096132;28;20040;-82
2022/01/04 02:46:37;;;;;;;53.72;25.35;;;;;;;;;;5095615;28;20102;-82
2022/01/04 02:49:03;;;;;;;53.53;26.02;;;;;;;;;;5096178;28;20047;-82
2022/01/04 02:51:29;;;;;;;56.15;26.63;;;;;;;;;;5096619;28;20444;-82
2022/01/04 02:53:55;;;;;;;53.80;27.05;;;;;;;;;;5096006;28;20063;-84
2022/01/04 02:56:21;;;;;;;52.00;27.70;;;;;;;;;;5077981;28;20044;-82
2022/01/04 02:58:47;;;;;;;54.28;28.25;;;;;;;;;;5094306;28;20079;-82
2022/01/04 03:01:13;;;;;;;57.67;27.90;;;;;;;;;;5077359;28;20044;-82
2022/01/04 03:03:39;;;;;;;54.60;28.77;;;;;;;;;;5077506;28;20172;-82
2022/01/04 03:06:05;;;;;;;59.45;28.70;;;;;;;;;;5094204;28;20516;-82
2022/01/04 03:08:31;;;;;;;55.20;29.63;;;;;;;;;;5077553;28;20052;-83
2022/01/04 03:10:59;;;;;;;62.10;29.83;;;;;;;;;;5094424;28;20048;-82
2022/01/04 03:13:28;;;;;;;62.63;28.88;;;;;;;;;;5095679;28;20458;-83
2022/01/04 03:15:54;;;;;;;59.45;29.10;;;;;;;;;;5094104;28;20051;-82
2022/01/04 03:18:20;;;;;;;57.55;29.20;;;;;;;;;;5076863;28;20052;-82
2022/01/04 03:20:46;;;;;;;55.42;28.15;;;;;;;;;;5093923;28;20119;-82
2022/01/04 03:23:12;;;;;;;64.40;29.17;;;;;;;;;;5077230;28;20079;-83
2022/01/04 03:25:40;;;;;;;60.60;28.88;;;;;;;;;;5094019;28;20072;-82
2022/01/04 03:28:07;;;;;;;62.70;28.70;;;;;;;;;;5076684;28;20135;-82
2022/01/04 03:30:36;;;;;;;53.33;27.40;;;;;;;;;;5095362;28;20119;-82
2022/01/04 03:33:02;;;;;;;60.30;29.27;;;;;;;;;;5077307;28;20109;-81
2022/01/04 03:35:28;;;;;;;64.00;29.02;;;;;;;;;;5094002;28;20082;-83
2022/01/04 03:37:54;;;;;;;58.00;29.40;;;;;;;;;;5077131;28;20051;-82
2022/01/04 03:40:20;;;;;;;58.80;29.50;;;;;;;;;;5076985;28;20628;-82
2022/01/04 03:42:46;;;;;;;56.92;29.45;;;;;;;;;;5077365;28;20044;-82
2022/01/04 03:45:12;;;;;;;55.35;28.52;;;;;;;;;;5094110;28;20047;-81
2022/01/04 03:47:38;;;;;;;54.90;30.33;;;;;;;;;;5093892;28;20044;-82
2022/01/04 03:50:05;;;;;;;66.90;31.55;;;;;;;;;;5095214;28;20498;-82
2022/01/04 03:52:31;;;;;;;68.25;31.15;;;;;;;;;;5093368;28;20123;-81
2022/01/04 03:54:57;;;;;;;61.90;32.15;;;;;;;;;;5093942;28;20055;-82
2022/01/04 03:57:23;;;;;;;59.03;31.23;;;;;;;;;;5093922;28;20044;-81
2022/01/04 03:59:49;;;;;;;61.17;32.10;;;;;;;;;;5093786;28;20467;-82
2022/01/04 04:02:15;;;;;;;64.32;31.70;;;;;;;;;;5078882;28;20126;-81
2022/01/04 04:04:41;;;;;;;61.83;32.42;;;;;;;;;;5080480;28;20140;-82
2022/01/04 04:07:09;;;;;;;57.60;31.85;;;;;;;;;;5115454;28;20051;-82
2022/01/04 04:09:36;;;;;;;69.10;33.17;;;;;;;;;;5096895;28;20055;-82
2022/01/04 04:12:03;;;;;;;67.32;31.92;;;;;;;;;;5096772;28;20055;-82
2022/01/04 04:14:29;;;;;;;63.45;30.75;;;;;;;;;;5080136;28;20134;-81
2022/01/04 04:16:55;;;;;;;64.85;32.22;;;;;;;;;;5080192;28;20047;-82
2022/01/04 04:19:21;;;;;;;64.75;32.08;;;;;;;;;;5079841;28;20061;-81
2022/01/04 04:21:47;;;;;;;57.25;30.98;;;;;;;;;;5115241;28;20057;-82
2022/01/04 04:24:13;;;;;;;56.63;31.13;;;;;;;;;;5079663;28;20388;-81
2022/01/04 04:26:39;;;;;;;67.63;31.98;;;;;;;;;;5080420;28;20533;-81
2022/01/04 04:29:05;;;;;;;58.30;31.08;;;;;;;;;;5096948;28;20489;-82
2022/01/04 04:31:31;;;;;;;63.40;31.70;;;;;;;;;;5096643;28;20031;-82
2022/01/04 04:33:57;;;;;;;53.83;32.15;;;;;;;;;;5080114;28;20595;-81
2022/01/04 04:36:24;;;;;;;62.40;31.73;;;;;;;;;;5079895;28;20051;-82
2022/01/04 04:38:51;;;;;;;57.42;31.50;;;;;;;;;;5096489;28;20047;-82
2022/01/04 04:41:17;;;;;;;62.78;32.67;;;;;;;;;;5096557;28;20053;-81
2022/01/04 04:43:43;;;;;;;63.55;32.40;;;;;;;;;;5096599;28;20053;-82
2022/01/04 04:46:09;;;;;;;58.88;31.70;;;;;;;;;;5096206;28;20048;-83
2022/01/04 04:48:35;;;;;;;55.72;31.38;;;;;;;;;;5079287;28;20049;-81
2022/01/04 04:51:01;;;;;;;63.65;31.08;;;;;;;;;;5096076;28;20047;-82
2022/01/04 04:53:27;;;;;;;63.38;31.95;;;;;;;;;;5096274;28;20096;-82
2022/01/04 04:55:53;;;;;;;60.28;31.88;;;;;;;;;;5096009;28;20047;-81
2022/01/04 04:58:19;;;;;;;59.92;31.15;;;;;;;;;;5095870;28;20118;-81
2022/01/04 05:00:45;;;;;;;58.42;30.35;;;;;;;;;;5095390;28;20844;-82
2022/01/04 05:03:11;;;;;;;58.85;31.42;;;;;;;;;;5113512;28;20066;-82
2022/01/04 05:05:40;;;;;;;57.65;30.45;;;;;;;;;;5079192;28;20051;-82
2022/01/04 05:08:06;;;;;;;66.63;29.92;;;;;;;;;;5079115;28;20122;-83
2022/01/04 05:10:35;;;;;;;54.92;29.48;;;;;;;;;;5095700;28;20039;-83
2022/01/04 05:13:01;;;;;;;52.42;28.45;;;;;;;;;;5078092;28;20379;-82
2022/01/04 05:15:27;;;;;;;55.35;29.58;;;;;;;;;;5078413;28;20044;-83
2022/01/04 05:17:54;;;;;;;53.88;28.08;;;;;;;;;;5095447;28;20050;-82
2022/01/04 05:20:20;;;;;;;50.63;27.77;;;;;;;;;;5078451;28;20044;-83
2022/01/04 05:22:46;;;;;;;58.80;28.73;;;;;;;;;;5078663;28;20108;-81
2022/01/04 05:25:12;;;;;;;51.50;27.75;;;;;;;;;;5078798;28;20083;-82
2022/01/04 05:27:38;;;;;;;53.45;27.23;;;;;;;;;;5094601;28;20122;-83
2022/01/04 05:30:05;;;;;;;43.95;24.38;;;7.90;99.90;;;;;;5078586;28;20145;-82
2022/01/04 05:32:31;;;;;;;43.85;22.85;;;;;;;;;;5078670;28;20383;-82
2022/01/04 05:34:57;;;;;;;36.35;20.33;;;;;;;;;;5079000;28;20516;-82
2022/01/04 05:37:23;;;;;;;33.92;19.08;;;;;;;;;;5113490;28;20045;-82
2022/01/04 05:39:49;;;;;;;37.47;20.85;;;;;;;;;;5095645;28;20094;-82
2022/01/04 05:42:15;;;;;;;44.08;24.17;;;;;;;;;;5078804;28;20521;-83
2022/01/04 05:44:41;;;;;;;47.83;26.33;;;;;;;;;;5113581;28;20050;-82
2022/01/04 05:47:07;;;;;;;51.20;27.38;;;;;;;;;;5094805;28;20096;-82
2022/01/04 05:49:33;;;;;;;62.33;29.33;;;;;;;;;;5078693;28;20079;-82
2022/01/04 05:51:59;;;;;;;53.95;29.23;;;;;;;;;;5095388;28;20051;-81
2022/01/04 05:54:25;;;;;;;52.53;28.45;;;;;;;;;;5095249;28;20054;-82
2022/01/04 05:56:51;;;;;;;54.75;28.73;;;;;;;;;;5095634;28;20090;-82
2022/01/04 05:59:18;;;;;;;52.08;29.08;;;;;;;;;;5113485;28;20051;-82
2022/01/04 06:01:44;;;;;;;57.55;29.95;;;;;;;;;;5077945;28;20046;-82
2022/01/04 06:04:11;;;;;;;50.17;28.38;;;;;;;;;;5095256;28;20047;-82
2022/01/04 06:06:41;;;;;;;57.72;28.40;;;;;;;;;;5095205;28;20067;-82
2022/01/04 06:09:09;;;;;;;53.60;29.40;;;;;;;;;;5078137;28;20092;-82
2022/01/04 06:16:51;;;;;;;51.78;28.35;;;;;;;;;;5095553;28;20051;-81
2022/01/04 06:19:17;;;;;;;52.63;29.23;;;;;;;;;;5078440;28;20485;-82
2022/01/04 06:21:45;;;;;;;53.75;29.08;;;;;;;;;;5095057;28;20036;-82
2022/01/04 06:24:11;;;;;;;56.63;28.90;;;;;;;;;;5095203;28;20036;-82
2022/01/04 06:26:37;;;;;;;50.70;28.27;;;;;;;;;;5095221;28;20118;-81
2022/01/04 06:29:03;;;;;;;52.92;29.02;;;;;;;;;;5113311;28;20386;-81
2022/01/04 06:31:29;;;;;;;55.40;29.33;;;8.00;99.90;;;;;;5094807;28;20101;-82
2022/01/04 06:33:55;;;;;;;53.58;28.13;;;;;;;;;;5113160;28;20052;-82
2022/01/04 06:36:22;;;;;;;56.50;28.52;;;;;;;;;;5077866;28;20079;-82
2022/01/04 06:38:48;;;;;;;54.08;28.27;;;;;;;;;;5080801;28;20051;-83
2022/01/04 06:41:14;;;;;;;52.50;28.33;;;;;;;;;;5098458;28;20039;-81
2022/01/04 06:43:40;;;;;;;53.00;28.58;;;;;;;;;;5097977;28;20058;-82
2022/01/04 06:46:06;;;;;;;48.85;27.15;;;;;;;;;;5098264;28;20043;-82
2022/01/04 06:48:32;;;;;;;51.55;28.23;;;;;;;;;;5081751;28;20171;-81
2022/01/04 06:50:58;;;;;;;54.03;27.90;;;;;;;;;;5098544;28;20047;-82
2022/01/04 06:53:24;;;;;;;53.20;27.52;;;;;;;;;;5098139;28;20405;-82
2022/01/04 06:55:52;;;;;;;51.83;28.48;;;;;;;;;;5098027;28;20039;-82
2022/01/04 06:58:18;;;;;;;53.45;29.13;;;;;;;;;;5097662;28;20043;-82
2022/01/04 07:00:44;;;;;;;57.33;29.42;;;;;;;;;;5098243;28;20450;-82
2022/01/04 07:03:10;;;;;;;54.78;29.45;;;;;;;;;;5098176;28;20048;-82
2022/01/04 07:05:36;;;;;;;53.38;29.63;;;;;;;;;;5098613;28;20050;-81
2022/01/04 07:08:03;;;;;;;55.85;28.88;;;;;;;;;;5081839;28;20074;-82
2022/01/04 07:10:29;;;;;;;55.15;30.50;;;;;;;;;;5098836;28;20431;-82
2022/01/04 07:12:55;;;;;;;53.90;29.58;;;;;;;;;;5081746;28;20051;-83
2022/01/04 07:15:21;;;;;;;55.90;30.15;;;;;;;;;;5095455;28;20055;-84
2022/01/04 07:17:47;;;;;;;54.60;29.85;;;;;;;;;;5080259;28;20116;-82
2022/01/04 07:20:14;;;;;;;49.78;29.35;;;;;;;;;;5097338;28;20131;-82
2022/01/04 07:22:40;;;;;;;55.80;31.02;;;;;;;;;;5128711;27;20488;-82
2022/01/04 07:25:07;;;;;;;55.03;30.50;;;;;;;;;;5108275;28;20079;-82
2022/01/04 07:27:33;;;;;;;56.47;30.83;;;;;;;;;;5084167;27;20049;-83
2022/01/04 07:29:59;;;;;;;54.03;31.50;;;;;;;;;;5088264;28;20476;-83
2022/01/04 07:32:25;;;;;;;57.95;31.73;;;;;;;;;;5116085;27;20058;-83
2022/01/04 07:34:51;;;;;;;54.63;30.88;;;;;;;;;;5079209;28;20101;-83
2022/01/04 07:37:17;;;;;;;62.15;31.85;;;;;;;;;;5096320;28;20460;-84
2022/01/04 07:39:43;;;;;;;57.97;31.85;;;;;;;;;;5079547;28;20139;-82
2022/01/04 07:42:09;;;;;;;59.80;32.35;;;;;;;;;;5114429;28;20091;-83
2022/01/04 07:44:35;;;;;;;58.20;32.17;;;;;;;;;;5095583;28;20104;-82
2022/01/04 07:47:01;;;;;;;61.03;32.58;;;;;;;;;;5096249;28;20578;-82
2022/01/04 07:49:28;;;;;;;57.95;33.05;;;;;;;;;;5095143;28;20040;-83
2022/01/04 07:51:54;;;;;;;57.67;32.85;;;;;;;;;;5079012;28;20055;-82
2022/01/04 07:54:20;;;;;;;57.75;31.48;;;;;;;;;;5096122;28;20104;-83
2022/01/04 07:56:46;;;;;;;59.22;32.67;;;;;;;;;;5078751;28;20413;-82
2022/01/04 07:59:12;;;;;;;57.95;32.55;;;;;;;;;;5096374;28;20044;-82
2022/01/04 08:01:38;;;;;;;56.47;32.75;;;;;;;;;;5079541;28;20102;-82
2022/01/04 08:04:04;;;;;;;57.25;31.42;;;;;;;;;;5095637;28;20144;-82
2022/01/04 08:06:31;;;;;;;55.90;32.70;;;;;;;;;;5079294;28;20830;-83
2022/01/04 08:08:57;;;;;;;61.38;32.83;;;;;;;;;;5114612;28;20054;-84
2022/01/04 08:11:26;;;;;;;55.35;32.58;;;7.90;99.90;;;;;;5095634;28;20108;-84
2022/01/04 08:13:52;;;;;;;60.00;33.28;;;;;;;;;;5095897;28;20078;-82
2022/01/04 08:16:21;;;;;;;58.78;32.88;;;;;;;;;;5113769;28;20502;-83
2022/01/04 08:18:50;;;;;;;53.10;33.40;;;;;;;;;;5095248;28;20489;-83
2022/01/04 08:21:16;;;;;;;59.67;33.25;;;;;;;;;;5078325;28;20140;-82
2022/01/04 08:23:42;;;;;;;55.08;33.42;;;;;;;;;;5113690;28;20079;-82
2022/01/04 08:26:11;;;;;;;62.03;33.20;;;;;;;;;;5078446;28;20048;-82
2022/01/04 08:28:37;;;;;;;64.00;34.40;;;;;;;;;;5078118;28;20104;-83
2022/01/04 08:31:03;;;;;;;58.50;33.03;;;;;;;;;;5078157;28;20048;-83
2022/01/04 08:33:29;;;;;;;54.22;31.70;;;;;;;;;;5094965;28;20401;-82
2022/01/04 08:35:55;;;;;;;51.95;31.30;;;;;;;;;;5113408;28;20470;-83
2022/01/04 08:38:21;;;;;;;55.20;32.60;;;;;;;;;;5078202;28;20074;-82
2022/01/04 08:40:47;;;;;;;50.17;31.30;;;;;;;;;;5095788;28;20093;-82
2022/01/04 08:43:13;;;;;;;55.75;30.67;;;;;;;;;;5095567;28;20496;-82
2022/01/04 08:45:39;;;;;;;49.70;29.95;;;;;;;;;;5095522;28;20047;-81
2022/01/04 08:48:05;;;;;;;50.72;30.42;;;;;;;;;;5078590;28;20104;-81
2022/01/04 08:50:31;;;;;;;47.88;28.80;;;;;;;;;;5078817;28;20047;-82
2022/01/04 08:52:57;;;;;;;45.33;29.27;;;;;;;;;;5078224;28;20139;-82
2022/01/04 08:55:24;;;;;;;50.92;28.63;;;;;;;;;;5095082;28;20047;-82
2022/01/04 08:57:50;;;;;;;50.03;28.63;;;;;;;;;;5078282;28;20048;-82
2022/01/04 09:00:16;;;;;;;43.00;27.08;;;;;;;;;;5109021;27;20103;-82
2022/01/04 09:02:45;;;;;;;44.72;28.98;;;;;;;;;;5113800;27;20051;-82
2022/01/04 09:05:12;;;;;;;50.30;28.23;;;;;;;;;;5098968;27;20171;-82
2022/01/04 09:07:39;;;;;;;46.42;28.90;;;;;;;;;;5115317;27;20043;-82
2022/01/04 09:10:05;;;;;;;44.92;29.50;;;;;;;;;;5098774;27;20051;-81
2022/01/04 09:12:42;;;;;;;50.03;29.77;;;;;;;;;;5097862;27;20059;-82
2022/01/04 09:20:39;;;;;;;43.35;29.63;;;;;;;;;;5114879;27;20035;-82
2022/01/04 09:23:06;;;;;;;47.00;29.77;;;;;;;;;;5097686;27;20485;-82
2022/01/04 09:25:32;;;;;;;45.30;30.50;;;;;;;;;;5097951;27;20043;-82
2022/01/04 09:27:58;;;;;;;50.78;30.55;;;;;;;;;;5133708;27;20047;-83
2022/01/04 09:30:24;;;;;;;53.67;31.10;;;;;;;;;;5133610;27;20090;-82
2022/01/04 09:32:52;;;;;;;48.15;31.17;;;;;;;;;;5114815;28;20144;-82
2022/01/04 09:35:18;;;;;;;54.40;32.47;;;;;;;;;;5133626;27;20051;-83
2022/01/04 09:37:44;;;;;;;51.58;31.55;;;;;;;;;;5132830;28;20059;-81
2022/01/04 09:40:11;;;;;;;48.08;31.75;;;;;;;;;;5115095;28;20075;-81
2022/01/04 09:42:40;;;;;;;55.75;31.67;;;;;;;;;;5098641;28;20536;-82
2022/01/04 09:45:06;;;;;;;57.28;32.33;;;;;;;;;;5114699;28;20086;-82
2022/01/04 09:47:33;;;;;;;53.22;32.38;;;;;;;;;;5133053;28;20104;-82
2022/01/04 09:49:59;;;;;;;54.97;32.45;;;;;;;;;;5097969;28;20078;-81
2022/01/04 09:52:25;;;;;;;73.20;34.25;;;;;;;;;;5114829;28;20047;-82
2022/01/04 09:54:53;;;;;;;67.97;34.58;;;;;;;;;;5098033;28;20825;-82
2022/01/04 09:57:19;;;;;;;72.25;36.10;;;;;;;;;;5097980;28;20093;-83
2022/01/04 09:59:45;;;;;;;38.15;22.27;;;;;;;;;;5122800;28;20053;-81
2022/01/04 10:02:19;;;;;;;31.25;18.45;;;8.10;99.90;;;;;;5094937;28;20491;-82
2022/01/04 10:04:45;;;;;;;15.55;10.25;;;;;;;;;;5077225;28;20077;-82
2022/01/04 10:07:11;;;;;;;19.30;10.38;;;;;;;;;;5094227;28;20043;-81
2022/01/04 10:09:44;;;;;;;12.57;7.13;;;7.80;99.90;;;;;;5076042;28;20067;-82
2022/01/04 10:12:11;;;;;;;13.05;6.80;;;;;;;;;;5094844;28;20047;-82
2022/01/04 10:14:40;;;;;;;11.32;6.20;;;;;;;;;;5097443;28;20054;-81
2022/01/04 10:17:08;;;;;;;8.75;5.80;;;;;;;;;;5097828;28;20050;-82
2022/01/04 10:19:38;;;;;;;12.90;7.55;;;;;;;;;;5097478;28;20093;-83
2022/01/04 10:22:10;;;;;;;17.80;9.70;;;;;;;;;;5097695;28;20054;-82
2022/01/04 10:24:37;;;;;;;18.77;10.90;;;;;;;;;;5080320;28;20067;-82
2022/01/04 10:27:22;;;;;;;19.90;11.48;;;7.60;99.90;;;;;;5115796;28;20043;-81
2022/01/04 10:29:48;;;;;;;19.97;12.43;;;;;;;;;;5080481;28;20129;-82
2022/01/04 10:32:15;;;;;;;18.20;11.80;;;;;;;;;;5080751;28;20048;-82
2022/01/04 10:34:48;;;;;;;20.85;11.57;;;;;;;;;;5080595;28;20052;-82
2022/01/04 10:37:32;;;;;;;19.77;10.88;;;;;;;;;;5097792;28;20043;-83
2022/01/04 10:40:03;;;;;;;19.95;10.15;;;;;;;;;;5098229;28;20102;-83
2022/01/04 10:42:29;;;;;;;16.65;8.05;;;;;;;;;;5098071;28;20486;-81
2022/01/04 10:44:55;;;;;;;13.52;8.07;;;;;;;;;;5081211;28;20139;-82
2022/01/04 10:47:26;;;;;;;16.70;7.57;;;;;;;;;;5080748;28;20039;-82
2022/01/04 10:49:52;;;;;;;10.23;6.15;;;;;;;;;;5080308;28;20055;-83
2022/01/04 10:52:22;;;;;;;10.93;5.95;;;;;;;;;;5116034;28;20046;-82
2022/01/04 10:55:08;;;;;;;11.93;6.18;;;;;;;;;;5080453;28;20168;-83
2022/01/04 10:57:37;;;;;;;12.90;6.18;;;;;;;;;;5114598;28;20520;-82
2022/01/04 11:00:13;;;;;;;9.98;5.13;;;;;;;;;;5115240;28;20055;-81
2022/01/04 11:02:39;;;;;;;16.00;6.20;;;;;;;;;;5096261;28;20519;-82
2022/01/04 11:05:15;;;;;;;14.23;5.78;;;;;;;;;;5087036;27;20374;-82
2022/01/04 11:07:57;;;;;;;14.68;5.72;;;;;;;;;;5100222;27;20043;-82
2022/01/04 11:10:23;;;;;;;10.40;5.25;;;;;;;;;;5117163;27;20493;-84
2022/01/04 11:12:49;;;;;;;7.75;4.30;;;;;;;;;;5100443;27;20047;-81
2022/01/04 11:15:19;;;;;;;5.50;3.40;;;;;;;;;;5101068;27;20117;-81
2022/01/04 11:17:45;;;;;;;6.65;3.10;;;;;;;;;;5100189;27;20047;-81
2022/01/04 11:20:12;;;;;;;9.73;3.80;;;;;;;;;;5100554;27;20113;-82
2022/01/04 11:22:42;;;;;;;9.90;3.60;;;;;;;;;;5105564;28;20136;-82
2022/01/04 11:25:08;;;;;;;12.30;3.60;;;;;;;;;;5114082;27;20047;-82
2022/01/04 11:27:37;;;;;;;9.02;3.53;;;;;;;;;;5098966;27;20051;-82
2022/01/04 11:30:07;;;;;;;6.65;3.05;;;;;;;;;;5122492;27;20126;-82
2022/01/04 11:32:37;;;;;;;8.73;3.03;;;;;;;;;;5079515;28;20048;-82
2022/01/04 11:35:16;;;;;;;9.02;2.80;;;;;;;;;;5097399;28;20560;-82
2022/01/04 11:37:50;;;;;;;7.07;2.53;;;;;;;;;;5096364;28;20064;-81
2022/01/04 11:40:23;;;;;;;8.23;2.80;;;;;;;;;;5115175;28;20118;-82
2022/01/04 11:42:49;;;;;;;7.20;2.60;;;;;;;;;;5079956;28;20092;-82
2022/01/04 11:45:16;;;;;;;8.45;2.55;;;;;;;;;;5096565;28;20255;-82
2022/01/04 11:47:49;;;;;;;7.18;2.63;;;;;;;;;;5083427;27;20126;-82
2022/01/04 11:50:24;;;;;;;5.70;2.40;;;;;;;;;;5108302;28;20052;-81
2022/01/04 11:52:50;;;;;;;9.10;3.60;;;;;;;;;;5096210;28;20059;-82
2022/01/04 11:55:37;;;;;;;7.25;2.88;;;;;;;;;;5080305;28;20060;-83
2022/01/04 11:58:08;;;;;;;9.20;2.70;;;;;;;;;;5096591;28;20064;-82
2022/01/04 12:00:39;;;;;;;9.35;2.70;;;;;;;;;;5079079;28;20047;-82
2022/01/04 12:03:05;;;;;;;8.75;2.30;;;;;;;;;;5078901;28;20086;-81
2022/01/04 12:05:31;;;;;;;9.68;2.50;;;;;;;;;;5095249;28;20055;-82
2022/01/04 12:08:03;;;;;;;4.15;2.00;;;;;;;;;;5113681;28;20059;-82
2022/01/04 12:10:30;;;;;;;8.02;2.35;;;;;;;;;;5095884;28;20043;-82
2022/01/04 12:12:59;;;;;;;7.75;2.00;;;;;;;;;;5095642;28;20052;-82
2022/01/04 12:15:35;;;;;;;6.30;2.10;;;;;;;;;;5078767;28;20058;-81
2022/01/04 12:18:04;;;;;;;7.07;2.25;;;;;;;;;;5079272;28;20044;-82
2022/01/04 12:20:43;;;;;;;9.00;5.00;;;;;;;;;;5079108;28;20130;-82
2022/01/04 12:23:29;;;;;;;3.70;1.90;;;;;;;;;;5079508;28;20053;-81
2022/01/04 12:26:04;;;;;;;3.28;1.45;;;;;;;;;;5079643;28;20130;-82
2022/01/04 12:28:33;;;;;;;3.75;1.70;;;;;;;;;;5095892;28;20492;-82
2022/01/04 12:33:46;;;;;;;6.45;1.83;;;6.50;99.90;;;;;;5095389;28;20054;-82
2022/01/04 12:36:23;;;;;;;3.90;1.42;;;;;;;;;;5078792;28;20070;-82
2022/01/04 12:38:49;;;;;;;5.55;1.50;;;;;;;;;;5095630;28;20093;-81
2022/01/04 12:41:16;;;;;;;8.13;1.70;;;;;;;;;;5078266;28;20052;-81
2022/01/04 12:43:46;;;;;;;5.70;2.05;;;6.30;99.90;;;;;;5113618;28;20086;-81
2022/01/04 12:46:12;;;;;;;6.15;1.70;;;;;;;;;;5079398;28;20116;-82
2022/01/04 12:48:47;;;;;;;5.10;1.77;;;6.40;99.90;;;;;;5078718;28;20537;-83
2022/01/04 12:51:31;;;;;;;7.90;1.75;;;6.40;99.90;;;;;;5079362;28;20039;-82
2022/01/04 12:54:02;;;;;;;6.78;1.80;;;;;;;;;;5095382;28;20083;-82
2022/01/04 12:56:28;;;;;;;4.50;1.55;;;;;;;;;;5079087;28;20477;-82
2022/01/04 12:58:56;;;;;;;6.82;1.70;;;6.30;99.90;;;;;;5082332;27;20054;-82
2022/01/04 13:01:27;;;;;;;5.75;1.58;;;6.20;99.90;;;;;;5099551;27;20723;-83
2022/01/04 13:03:54;;;;;;;9.63;1.70;;;6.00;99.90;;;;;;5098853;27;20051;-82
2022/01/04 13:06:21;;;;;;;6.40;1.70;;;;;;;;;;5121727;27;20100;-82
2022/01/04 13:09:05;;;;;;;8.55;1.65;;;;;;;;;;5131319;27;20070;-83
2022/01/04 13:11:31;;;;;;;11.65;1.73;;;;;;;;;;5115006;27;20051;-82
2022/01/04 13:14:00;;;;;;;7.32;1.63;;;5.80;99.90;;;;;;5127892;27;20127;-81
2022/01/04 13:16:34;;;;;;;9.90;1.60;;;5.70;99.90;;;;;;5109289;28;20039;-82
2022/01/04 13:19:13;;;;;;;3.75;1.33;;;5.70;99.90;;;;;;5114665;27;20110;-82
2022/01/04 13:21:39;;;;;;;9.60;1.77;;;;;;;;;;5132678;27;20374;-82
2022/01/04 13:24:09;;;;;;;7.85;1.60;;;;;;;;;;5129265;27;20053;-82
2022/01/04 13:26:35;;;;;;;6.35;1.40;;;;;;;;;;5125049;28;20150;-82
2022/01/04 13:29:02;;;;;;;6.63;1.63;;;;;;;;;;5107027;27;20047;-82
2022/01/04 13:31:28;;;;;;;10.63;1.63;;;;;;;;;;5145576;27;20108;-82
2022/01/04 13:33:55;;;;;;;7.95;1.60;;;5.90;99.90;;;;;;5149330;27;20043;-82
2022/01/04 13:36:22;;;;;;;8.88;1.50;;;5.80;99.90;;;;;;5129097;28;20047;-82
2022/01/04 13:38:50;;;;;;;7.68;1.55;;;;;;;;;;5127433;28;20122;-82
2022/01/04 13:41:35;;;;;;;11.77;1.80;;;5.90;99.90;;;;;;5124356;28;20122;-82
2022/01/04 13:44:03;;;;;;;10.68;1.73;;;5.80;99.90;;;;;;5097247;28;20043;-81
2022/01/04 13:46:30;;;;;;;9.45;1.88;;;;;;;;;;5113196;28;20048;-82
2022/01/04 13:48:56;;;;;;;9.10;1.73;;;;;;;;;;5116894;28;20048;-82
2022/01/04 13:51:30;;;;;;;9.98;2.00;;;5.80;99.90;;;;;;5081844;28;20104;-85
2022/01/04 13:53:59;;;;;;;7.10;1.90;;;;;;;;;;5098792;28;20122;-82
2022/01/04 13:56:32;;;;;;;11.35;1.95;;;5.80;99.90;;;;;;5081608;28;20067;-82
2022/01/04 13:58:58;;;;;;;8.10;1.50;;;;;;;;;;5081880;28;20048;-83
2022/01/04 14:01:24;;;;;;;6.40;1.58;;;;;;;;;;5098199;28;20390;-82
2022/01/04 14:04:08;;;;;;;8.30;3.00;;;5.80;99.90;;;;;;5081565;28;20051;-83
2022/01/04 14:06:35;;;;;;;9.45;2.67;;;5.90;99.90;;;;;;5098125;28;20058;-82
2022/01/04 14:09:07;;;;;;;10.18;1.80;;;5.90;99.90;;;;;;5081484;28;20075;-82
2022/01/04 14:11:41;;;;;;;11.07;2.40;;;6.40;99.90;;;;;;5081203;28;20052;-82
2022/01/04 14:14:31;;;;;;;11.93;2.30;;;5.90;99.90;;;;;;5081505;28;20074;-82
2022/01/04 14:17:02;;;;;;;7.50;2.10;;;5.80;99.90;;;;;;5116517;28;20055;-83
2022/01/04 14:19:33;;;;;;;11.90;1.95;;;5.80;99.90;;;;;;5081222;28;20048;-82
2022/01/04 14:21:59;;;;;;;12.98;1.90;;;;;;;;;;5081152;28;20397;-82
2022/01/04 14:24:38;;;;;;;9.30;1.95;;;5.80;99.90;;;;;;5081194;28;20123;-83
2022/01/04 14:27:05;;;;;;;9.50;1.80;;;5.80;99.90;;;;;;5081517;28;20451;-83
2022/01/04 14:29:32;;;;;;;12.98;1.95;;;5.80;99.90;;;;;;5080968;28;20048;-82